Time,TemperatureF,DewpointF,PressureIn,WindDirection,WindDirectionDegrees,WindSpeedMPH,WindSpeedGustMPH,Humidity,HourlyPrecipIn,Conditions,Clouds,dailyrainin,SoftwareType,DateUTC
2013-02-27 00:00:00,41.9,-10.7,28.83,North,0,0.0,0.0,1,0.00,,,1.01,WUHU216HW,2013-02-27 05:00:00,
2013-02-27 00:01:00,41.9,-10.7,28.83,North,0,0.0,0.0,1,0.00,,,0.00,WUHU216HW,2013-02-27 05:01:00,
2013-02-27 00:06:00,41.9,-10.7,28.83,North,0,0.0,0.0,1,0.00,,,0.00,WUHU216HW,2013-02-27 05:06:00,
2013-02-27 00:11:00,41.9,-10.7,28.83,North,0,0.0,0.0,1,0.00,,,0.00,WUHU216HW,2013-02-27 05:11:00,
2013-02-27 00:17:00,41.9,-10.7,28.83,North,0,0.0,0.0,1,0.00,,,0.00,WUHU216HW,2013-02-27 05:17:00,
2013-02-27 00:22:00,41.9,-10.7,28.83,North,0,0.0,0.0,1,0.00,,,0.00,WUHU216HW,2013-02-27 05:22:00,
2013-02-27 00:27:00,41.9,-10.7,28.83,North,0,0.0,0.0,1,0.00,,,0.00,WUHU216HW,2013-02-27 05:27:00,
2013-02-27 00:32:00,41.9,-10.7,28.83,North,0,0.0,0.0,1,0.00,,,0.00,WUHU216HW,2013-02-27 05:32:00,
2013-02-27 00:37:00,41.9,-10.7,28.83,North,0,0.0,0.0,1,0.00,,,0.00,WUHU216HW,2013-02-27 05:37:00,
2013-02-27 00:42:00,41.8,-10.8,28.83,North,0,0.0,0.0,1,0.00,,,0.00,WUHU216HW,2013-02-27 05:42:00,
2013-02-27 00:47:00,41.8,-10.8,28.84,North,0,0.0,0.0,1,0.00,,,0.00,WUHU216HW,2013-02-27 05:47:00,
2013-02-27 00:52:00,41.8,-10.8,28.84,North,0,0.0,0.0,1,0.00,,,0.00,WUHU216HW,2013-02-27 05:52:00,
2013-02-27 00:57:00,41.8,-10.8,28.84,North,0,0.0,0.0,1,0.00,,,0.00,WUHU216HW,2013-02-27 05:57:00,
2013-02-27 01:02:00,41.8,-10.8,28.84,North,0,0.0,0.0,1,0.00,,,0.00,WUHU216HW,2013-02-27 06:02:00,
2013-02-27 01:07:00,41.8,-10.8,28.84,North,0,0.0,0.0,1,0.00,,,0.00,WUHU216HW,2013-02-27 06:07:00,
2013-02-27 01:12:00,41.8,-10.8,28.84,North,0,0.0,0.0,1,0.00,,,0.00,WUHU216HW,2013-02-27 06:12:00,
2013-02-27 01:17:00,41.8,-10.8,28.84,North,0,0.0,0.0,1,0.00,,,0.00,WUHU216HW,2013-02-27 06:17:00,
2013-02-27 01:23:00,41.8,-10.8,28.85,North,0,0.0,0.0,1,0.00,,,0.00,WUHU216HW,2013-02-27 06:23:00,
2013-02-27 01:28:00,41.8,-10.8,28.85,North,0,0.0,0.0,1,0.00,,,0.00,WUHU216HW,2013-02-27 06:28:00,
2013-02-27 01:33:00,41.8,-10.8,28.85,North,0,0.0,0.0,1,0.00,,,0.00,WUHU216HW,2013-02-27 06:33:00,
2013-02-27 01:38:00,41.8,-10.8,28.85,North,0,0.0,0.0,1,0.00,,,0.00,WUHU216HW,2013-02-27 06:38:00,
2013-02-27 01:43:00,41.8,-10.8,28.85,North,0,0.0,0.0,1,0.00,,,0.00,WUHU216HW,2013-02-27 06:43:00,
2013-02-27 01:48:00,41.8,-10.8,28.85,North,0,0.0,0.0,1,0.00,,,0.00,WUHU216HW,2013-02-27 06:48:00,
2013-02-27 01:53:00,41.8,-10.8,28.85,North,0,0.0,0.0,1,0.00,,,0.00,WUHU216HW,2013-02-27 06:53:00,
2013-02-27 01:58:00,41.8,-10.8,28.85,North,0,0.0,0.0,1,0.00,,,0.00,WUHU216HW,2013-02-27 06:58:00,
2013-02-27 02:03:00,41.6,-11.0,28.86,North,0,0.0,0.0,1,0.00,,,0.00,WUHU216HW,2013-02-27 07:03:00,
2013-02-27 02:08:00,41.6,-11.0,28.86,North,0,0.0,0.0,1,0.00,,,0.00,WUHU216HW,2013-02-27 07:08:00,
2013-02-27 02:13:00,41.6,-11.0,28.86,North,0,0.0,0.0,1,0.00,,,0.00,WUHU216HW,2013-02-27 07:13:00,
2013-02-27 02:18:00,41.4,-11.1,28.86,North,0,0.0,0.0,1,0.00,,,0.00,WUHU216HW,2013-02-27 07:18:00,
2013-02-27 02:23:00,41.4,-11.1,28.86,North,0,0.0,0.0,1,0.00,,,0.00,WUHU216HW,2013-02-27 07:23:00,
2013-02-27 02:28:00,41.2,-11.2,28.86,North,0,0.0,0.0,1,0.00,,,0.00,WUHU216HW,2013-02-27 07:28:00,
2013-02-27 02:33:00,41.2,-11.2,28.87,North,0,0.0,0.0,1,0.00,,,0.00,WUHU216HW,2013-02-27 07:33:00,
2013-02-27 02:38:00,41.0,-11.3,28.86,North,0,0.0,0.0,1,0.00,,,0.00,WUHU216HW,2013-02-27 07:38:00,
2013-02-27 02:43:00,41.0,-11.3,28.86,North,0,0.0,0.0,1,0.00,,,0.00,WUHU216HW,2013-02-27 07:43:00,
2013-02-27 02:49:00,40.7,-11.6,28.86,North,0,0.0,0.0,1,0.00,,,0.00,WUHU216HW,2013-02-27 07:49:00,
2013-02-27 02:54:00,40.7,-11.6,28.86,North,0,0.0,0.0,1,0.00,,,0.00,WUHU216HW,2013-02-27 07:54:00,
2013-02-27 02:59:00,40.5,-11.8,28.86,North,0,0.0,0.0,1,0.00,,,0.00,WUHU216HW,2013-02-27 07:59:00,
2013-02-27 03:04:00,40.5,-11.8,28.86,North,0,0.0,0.0,1,0.00,,,0.00,WUHU216HW,2013-02-27 08:04:00,
2013-02-27 03:09:00,40.3,-11.9,28.86,North,0,0.0,0.0,1,0.00,,,0.00,WUHU216HW,2013-02-27 08:09:00,
2013-02-27 03:14:00,40.3,-11.9,28.86,North,0,0.0,0.0,1,0.00,,,0.00,WUHU216HW,2013-02-27 08:14:00,
2013-02-27 03:19:00,40.1,-12.1,28.86,North,0,0.0,0.0,1,0.00,,,0.00,WUHU216HW,2013-02-27 08:19:00,
2013-02-27 03:24:00,40.1,-12.1,28.86,North,0,0.0,0.0,1,0.00,,,0.00,WUHU216HW,2013-02-27 08:24:00,
2013-02-27 03:29:00,40.1,-12.1,28.86,North,0,0.0,0.0,1,0.00,,,0.00,WUHU216HW,2013-02-27 08:29:00,
2013-02-27 03:34:00,40.1,-12.1,28.86,North,0,0.0,0.0,1,0.00,,,0.00,WUHU216HW,2013-02-27 08:34:00,
2013-02-27 03:39:00,40.0,-12.2,28.86,North,0,0.0,0.0,1,0.00,,,0.00,WUHU216HW,2013-02-27 08:39:00,
2013-02-27 03:44:00,40.0,-12.2,28.85,North,0,0.0,0.0,1,0.00,,,0.00,WUHU216HW,2013-02-27 08:44:00,
2013-02-27 03:49:00,40.0,-12.2,28.85,North,0,0.0,0.0,1,0.00,,,0.00,WUHU216HW,2013-02-27 08:49:00,
2013-02-27 03:54:00,40.0,-12.2,28.85,North,0,0.0,0.0,1,0.00,,,0.00,WUHU216HW,2013-02-27 08:54:00,
2013-02-27 03:59:00,40.0,-12.2,28.86,North,0,0.0,0.0,1,0.00,,,0.00,WUHU216HW,2013-02-27 08:59:00,
2013-02-27 04:05:00,40.0,-12.2,28.86,North,0,0.0,0.0,1,0.00,,,0.00,WUHU216HW,2013-02-27 09:05:00,
2013-02-27 04:10:00,40.0,-12.2,28.86,North,0,0.0,0.0,1,0.00,,,0.00,WUHU216HW,2013-02-27 09:10:00,
2013-02-27 04:15:00,40.0,-12.2,28.86,North,0,0.0,0.0,1,0.00,,,0.00,WUHU216HW,2013-02-27 09:15:00,
2013-02-27 04:20:00,40.0,-12.2,28.86,North,0,0.0,0.0,1,0.00,,,0.00,WUHU216HW,2013-02-27 09:20:00,
2013-02-27 04:25:00,40.0,-12.2,28.86,North,0,0.0,0.0,1,0.00,,,0.00,WUHU216HW,2013-02-27 09:25:00,
2013-02-27 04:30:00,40.0,-12.2,28.86,North,0,0.0,0.0,1,0.00,,,0.00,WUHU216HW,2013-02-27 09:30:00,
2013-02-27 04:35:00,40.0,-12.2,28.87,North,0,0.0,0.0,1,0.00,,,0.00,WUHU216HW,2013-02-27 09:35:00,
2013-02-27 04:40:00,40.0,-12.2,28.87,North,0,0.0,0.0,1,0.00,,,0.00,WUHU216HW,2013-02-27 09:40:00,
2013-02-27 04:45:00,40.0,-12.2,28.87,North,0,0.0,0.0,1,0.00,,,0.00,WUHU216HW,2013-02-27 09:45:00,
2013-02-27 04:50:00,40.1,-12.1,28.87,North,0,0.0,0.0,1,0.00,,,0.00,WUHU216HW,2013-02-27 09:50:00,
2013-02-27 04:55:00,40.3,-11.9,28.88,North,0,0.0,0.0,1,0.00,,,0.00,WUHU216HW,2013-02-27 09:55:00,
2013-02-27 05:00:00,40.3,-11.9,28.88,North,0,0.0,0.0,1,0.00,,,0.00,WUHU216HW,2013-02-27 10:00:00,
2013-02-27 05:05:00,40.3,-11.9,28.88,North,0,0.0,0.0,1,0.00,,,0.00,WUHU216HW,2013-02-27 10:05:00,
2013-02-27 05:10:00,40.1,-12.1,28.88,North,0,0.0,0.0,1,0.00,,,0.00,WUHU216HW,2013-02-27 10:10:00,
2013-02-27 05:15:00,40.0,-12.2,28.89,North,0,0.0,0.0,1,0.00,,,0.00,WUHU216HW,2013-02-27 10:15:00,
2013-02-27 05:21:00,39.6,-12.5,28.89,North,0,0.0,0.0,1,0.00,,,0.00,WUHU216HW,2013-02-27 10:21:00,
2013-02-27 05:26:00,39.2,-12.8,28.90,North,0,0.0,0.0,1,0.00,,,0.00,WUHU216HW,2013-02-27 10:26:00,
2013-02-27 05:31:00,38.5,-13.3,28.90,North,0,0.0,0.0,1,0.00,,,0.00,WUHU216HW,2013-02-27 10:31:00,
2013-02-27 05:36:00,38.3,-13.5,28.90,North,0,0.0,0.0,1,0.00,,,0.00,WUHU216HW,2013-02-27 10:36:00,
2013-02-27 05:41:00,38.0,-13.8,28.90,North,0,0.0,0.0,1,0.00,,,0.00,WUHU216HW,2013-02-27 10:41:00,
2013-02-27 05:46:00,37.8,-13.9,28.90,North,0,0.0,0.0,1,0.00,,,0.00,WUHU216HW,2013-02-27 10:46:00,
2013-02-27 05:51:00,37.4,-14.2,28.90,North,0,0.0,0.0,1,0.00,,,0.00,WUHU216HW,2013-02-27 10:51:00,
2013-02-27 05:56:00,37.3,-14.4,28.90,North,0,0.0,0.0,1,0.00,,,0.00,WUHU216HW,2013-02-27 10:56:00,
2013-02-27 06:01:00,37.1,-14.5,28.90,North,0,0.0,0.0,1,0.00,,,0.00,WUHU216HW,2013-02-27 11:01:00,
2013-02-27 06:06:00,37.1,-14.5,28.91,North,0,0.0,0.0,1,0.00,,,0.00,WUHU216HW,2013-02-27 11:06:00,
2013-02-27 06:11:00,36.7,-14.7,28.91,North,0,0.0,0.0,1,0.00,,,0.00,WUHU216HW,2013-02-27 11:11:00,
2013-02-27 06:16:00,36.7,-14.7,28.92,North,0,0.0,0.0,1,0.00,,,0.00,WUHU216HW,2013-02-27 11:16:00,
2013-02-27 06:21:00,36.5,-14.9,28.92,North,0,0.0,0.0,1,0.00,,,0.00,WUHU216HW,2013-02-27 11:21:00,
2013-02-27 06:26:00,36.4,-15.1,28.92,North,0,0.0,0.0,1,0.00,,,0.00,WUHU216HW,2013-02-27 11:26:00,
2013-02-27 06:32:00,36.2,-15.2,28.92,North,0,0.0,0.0,1,0.00,,,0.00,WUHU216HW,2013-02-27 11:32:00,
2013-02-27 06:37:00,36.0,-15.4,28.93,North,0,0.0,0.0,1,0.00,,,0.00,WUHU216HW,2013-02-27 11:37:00,
2013-02-27 06:42:00,35.8,-15.5,28.93,North,0,0.0,0.0,1,0.00,,,0.00,WUHU216HW,2013-02-27 11:42:00,
2013-02-27 06:47:00,35.8,-15.5,28.93,North,0,0.0,0.0,1,0.00,,,0.00,WUHU216HW,2013-02-27 11:47:00,
2013-02-27 06:52:00,35.6,-15.7,28.92,North,0,0.0,0.0,1,0.00,,,0.00,WUHU216HW,2013-02-27 11:52:00,
2013-02-27 06:57:00,35.6,-15.7,28.93,North,0,0.0,0.0,1,0.00,,,0.00,WUHU216HW,2013-02-27 11:57:00,
2013-02-27 07:02:00,35.6,-15.7,28.93,North,0,0.0,0.0,1,0.00,,,0.00,WUHU216HW,2013-02-27 12:02:00,
2013-02-27 07:07:00,35.6,-15.7,28.93,North,0,0.0,0.0,1,0.00,,,0.00,WUHU216HW,2013-02-27 12:07:00,
2013-02-27 07:12:00,35.6,-15.7,28.93,North,0,0.0,0.0,1,0.00,,,0.00,WUHU216HW,2013-02-27 12:12:00,
2013-02-27 07:17:00,35.6,-15.7,28.93,North,0,0.0,0.0,1,0.00,,,0.00,WUHU216HW,2013-02-27 12:17:00,
2013-02-27 07:22:00,35.6,-15.7,28.94,North,0,0.0,0.0,1,0.00,,,0.00,WUHU216HW,2013-02-27 12:22:00,
2013-02-27 07:27:00,35.6,-15.7,28.94,North,0,0.0,0.0,1,0.00,,,0.00,WUHU216HW,2013-02-27 12:27:00,
2013-02-27 07:32:00,35.6,-15.7,28.95,North,0,0.0,0.0,1,0.00,,,0.00,WUHU216HW,2013-02-27 12:32:00,
2013-02-27 07:37:00,35.6,-15.7,28.95,North,0,0.0,0.0,1,0.00,,,0.00,WUHU216HW,2013-02-27 12:37:00,
2013-02-27 07:43:00,35.6,-15.7,28.95,North,0,0.0,0.0,1,0.00,,,0.00,WUHU216HW,2013-02-27 12:43:00,
2013-02-27 07:48:00,35.6,-15.7,28.95,North,0,0.0,0.0,1,0.00,,,0.00,WUHU216HW,2013-02-27 12:48:00,
2013-02-27 07:53:00,35.6,-15.7,28.95,North,0,0.0,0.0,1,0.00,,,0.00,WUHU216HW,2013-02-27 12:53:00,
2013-02-27 07:58:00,35.6,-15.7,28.95,North,0,0.0,0.0,1,0.00,,,0.00,WUHU216HW,2013-02-27 12:58:00,
2013-02-27 08:03:00,35.5,-15.8,28.96,North,0,0.0,0.0,1,0.00,,,0.00,WUHU216HW,2013-02-27 13:03:00,
2013-02-27 08:08:00,35.5,-15.8,28.96,North,0,0.0,0.0,1,0.00,,,0.00,WUHU216HW,2013-02-27 13:08:00,
2013-02-27 08:13:00,35.3,-15.9,28.96,North,0,0.0,0.0,1,0.00,,,0.00,WUHU216HW,2013-02-27 13:13:00,
2013-02-27 08:18:00,35.5,-15.8,28.97,North,0,0.0,0.0,1,0.00,,,0.00,WUHU216HW,2013-02-27 13:18:00,
2013-02-27 08:23:00,35.5,-15.8,28.97,North,0,0.0,0.0,1,0.00,,,0.00,WUHU216HW,2013-02-27 13:23:00,
2013-02-27 08:28:00,35.5,-15.8,28.97,North,0,0.0,0.0,1,0.00,,,0.00,WUHU216HW,2013-02-27 13:28:00,
2013-02-27 08:33:00,35.5,-15.8,28.97,North,0,0.0,0.0,1,0.00,,,0.00,WUHU216HW,2013-02-27 13:33:00,
2013-02-27 08:38:00,35.3,-15.9,28.97,North,0,0.0,0.0,1,0.00,,,0.00,WUHU216HW,2013-02-27 13:38:00,
2013-02-27 08:43:00,35.3,-15.9,28.97,North,0,0.0,0.0,1,0.00,,,0.00,WUHU216HW,2013-02-27 13:43:00,
2013-02-27 08:48:00,35.3,-15.9,28.98,North,0,0.0,0.0,1,0.00,,,0.00,WUHU216HW,2013-02-27 13:48:00,
2013-02-27 08:53:00,35.3,-15.9,28.98,North,0,0.0,0.0,1,0.00,,,0.00,WUHU216HW,2013-02-27 13:53:00,
2013-02-27 08:58:00,35.3,-15.9,28.98,North,0,0.0,0.0,1,0.00,,,0.00,WUHU216HW,2013-02-27 13:58:00,
2013-02-27 09:03:00,35.1,-16.1,28.98,North,0,0.0,0.0,1,0.00,,,0.00,WUHU216HW,2013-02-27 14:03:00,
2013-02-27 09:08:00,35.1,-16.1,28.98,North,0,0.0,0.0,1,0.00,,,0.00,WUHU216HW,2013-02-27 14:08:00,
2013-02-27 09:14:00,35.1,-16.1,28.98,North,0,0.0,0.0,1,0.00,,,0.00,WUHU216HW,2013-02-27 14:14:00,
2013-02-27 09:19:00,35.1,-16.1,28.98,North,0,0.0,0.0,1,0.00,,,0.00,WUHU216HW,2013-02-27 14:19:00,
2013-02-27 09:24:00,35.1,-16.1,28.98,North,0,0.0,0.0,1,0.00,,,0.00,WUHU216HW,2013-02-27 14:24:00,
2013-02-27 09:29:00,35.3,-15.9,28.98,North,0,0.0,0.0,1,0.00,,,0.00,WUHU216HW,2013-02-27 14:29:00,
2013-02-27 09:34:00,35.3,-15.9,28.98,North,0,0.0,0.0,1,0.00,,,0.00,WUHU216HW,2013-02-27 14:34:00,
2013-02-27 09:39:00,35.3,-15.9,28.98,North,0,0.0,0.0,1,0.00,,,0.00,WUHU216HW,2013-02-27 14:39:00,
2013-02-27 09:44:00,35.3,-15.9,28.98,North,0,0.0,0.0,1,0.00,,,0.00,WUHU216HW,2013-02-27 14:44:00,
2013-02-27 09:49:00,35.3,-15.9,28.99,North,0,0.0,0.0,1,0.00,,,0.00,WUHU216HW,2013-02-27 14:49:00,
2013-02-27 09:54:00,35.3,-15.9,28.98,North,0,0.0,0.0,1,0.00,,,0.00,WUHU216HW,2013-02-27 14:54:00,
2013-02-27 09:59:00,35.3,-15.9,28.98,North,0,0.0,0.0,1,0.00,,,0.00,WUHU216HW,2013-02-27 14:59:00,
2013-02-27 10:04:00,35.3,-15.9,28.99,North,0,0.0,0.0,1,0.00,,,0.00,WUHU216HW,2013-02-27 15:04:00,
2013-02-27 10:09:00,35.3,-15.9,28.99,North,0,0.0,0.0,1,0.00,,,0.00,WUHU216HW,2013-02-27 15:09:00,
2013-02-27 10:14:00,35.3,-15.9,28.99,North,0,0.0,0.0,1,0.00,,,0.00,WUHU216HW,2013-02-27 15:14:00,
2013-02-27 10:19:00,35.3,-15.9,28.99,North,0,0.0,0.0,1,0.00,,,0.00,WUHU216HW,2013-02-27 15:19:00,
2013-02-27 10:24:00,35.3,-15.9,28.99,North,0,0.0,0.0,1,0.00,,,0.00,WUHU216HW,2013-02-27 15:24:00,
2013-02-27 10:29:00,35.1,-16.1,28.99,North,0,0.0,0.0,1,0.00,,,0.00,WUHU216HW,2013-02-27 15:29:00,
2013-02-27 10:34:00,35.3,-15.9,28.98,North,0,0.0,0.0,1,0.00,,,0.00,WUHU216HW,2013-02-27 15:34:00,
2013-02-27 10:39:00,35.3,-15.9,28.98,North,0,0.0,0.0,1,0.00,,,0.00,WUHU216HW,2013-02-27 15:39:00,
2013-02-27 10:44:00,35.1,-16.1,28.99,North,0,0.0,0.0,1,0.00,,,0.00,WUHU216HW,2013-02-27 15:44:00,
2013-02-27 10:49:00,34.9,-16.2,28.98,North,0,0.0,0.0,1,0.00,,,0.00,WUHU216HW,2013-02-27 15:49:00,
2013-02-27 10:55:00,34.9,-16.2,28.98,North,0,0.0,0.0,1,0.00,,,0.00,WUHU216HW,2013-02-27 15:55:00,
2013-02-27 11:00:00,35.1,-16.1,28.98,North,0,0.0,0.0,1,0.00,,,0.00,WUHU216HW,2013-02-27 16:00:00,
2013-02-27 11:05:00,35.6,-15.7,28.98,North,0,0.0,0.0,1,0.00,,,0.00,WUHU216HW,2013-02-27 16:05:00,
2013-02-27 11:10:00,35.8,-15.5,28.98,North,0,0.0,0.0,1,0.00,,,0.00,WUHU216HW,2013-02-27 16:10:00,
2013-02-27 11:15:00,36.2,-15.2,28.98,North,0,0.0,0.0,1,0.00,,,0.00,WUHU216HW,2013-02-27 16:15:00,
2013-02-27 11:20:00,36.4,-15.1,28.98,North,0,0.0,0.0,7,0.00,,,0.00,WUHU216HW,2013-02-27 16:20:00,
2013-02-27 11:25:00,36.2,-15.2,28.98,North,0,0.0,0.0,7,0.00,,,0.00,WUHU216HW,2013-02-27 16:25:00,
2013-02-27 11:30:00,36.0,-15.4,28.98,North,0,0.0,0.0,7,0.00,,,0.00,WUHU216HW,2013-02-27 16:30:00,
2013-02-27 11:35:00,36.0,-15.4,28.98,North,0,0.0,0.0,7,0.00,,,0.00,WUHU216HW,2013-02-27 16:35:00,
2013-02-27 11:40:00,36.0,-15.4,28.98,North,0,0.0,0.0,9,0.00,,,0.00,WUHU216HW,2013-02-27 16:40:00,
2013-02-27 11:45:00,36.0,-13.9,28.98,North,0,0.0,0.0,11,0.00,,,0.00,WUHU216HW,2013-02-27 16:45:00,
2013-02-27 11:50:00,36.4,-12.2,28.98,North,0,0.0,0.0,12,0.00,,,0.00,WUHU216HW,2013-02-27 16:50:00,
2013-02-27 11:55:00,36.5,-4.9,28.98,North,0,0.0,0.0,17,0.00,,,0.00,WUHU216HW,2013-02-27 16:55:00,
2013-02-27 12:00:00,36.5,6.3,28.98,North,0,0.0,0.0,28,0.00,,,0.00,WUHU216HW,2013-02-27 17:00:00,
2013-02-27 12:05:00,36.5,7.1,28.98,North,0,0.0,0.0,29,0.00,,,0.00,WUHU216HW,2013-02-27 17:05:00,
2013-02-27 12:10:00,36.5,10.0,28.98,North,0,0.0,0.0,33,0.00,,,0.00,WUHU216HW,2013-02-27 17:10:00,
2013-02-27 12:15:00,36.4,11.1,28.98,North,0,0.0,0.0,35,0.00,,,0.00,WUHU216HW,2013-02-27 17:15:00,
2013-02-27 12:20:00,36.4,8.5,28.98,North,0,0.0,0.0,31,0.00,,,0.00,WUHU216HW,2013-02-27 17:20:00,
2013-02-27 12:26:00,36.4,6.1,28.98,North,0,0.0,0.0,28,0.00,,,0.00,WUHU216HW,2013-02-27 17:26:00,
2013-02-27 12:31:00,36.4,2.6,28.98,North,0,0.0,0.0,24,0.00,,,0.00,WUHU216HW,2013-02-27 17:31:00,
2013-02-27 12:36:00,36.0,0.5,28.98,North,0,0.0,0.0,22,0.00,,,0.00,WUHU216HW,2013-02-27 17:36:00,
2013-02-27 12:41:00,35.6,-5.7,28.98,North,0,0.0,0.0,17,0.00,,,0.00,WUHU216HW,2013-02-27 17:41:00,
2013-02-27 12:46:00,36.0,-15.4,28.98,North,0,0.0,0.0,9,0.00,,,0.00,WUHU216HW,2013-02-27 17:46:00,
2013-02-27 12:51:00,36.2,-15.2,28.98,North,0,0.0,0.0,7,0.00,,,0.00,WUHU216HW,2013-02-27 17:51:00,
2013-02-27 12:56:00,36.2,-15.2,28.98,North,0,0.0,0.0,7,0.00,,,0.00,WUHU216HW,2013-02-27 17:56:00,
2013-02-27 13:01:00,36.4,-15.1,28.98,North,0,0.0,0.0,7,0.00,,,0.00,WUHU216HW,2013-02-27 18:01:00,
2013-02-27 13:06:00,36.7,-14.7,28.98,North,0,0.0,0.0,7,0.00,,,0.00,WUHU216HW,2013-02-27 18:06:00,
2013-02-27 13:11:00,37.1,-14.5,28.98,North,0,0.0,0.0,10,0.00,,,0.00,WUHU216HW,2013-02-27 18:11:00,
2013-02-27 13:16:00,36.9,-3.2,28.98,North,0,0.0,0.0,18,0.00,,,0.00,WUHU216HW,2013-02-27 18:16:00,
2013-02-27 13:21:00,36.5,0.2,28.98,North,0,0.0,0.0,21,0.00,,,0.00,WUHU216HW,2013-02-27 18:21:00,
2013-02-27 13:26:00,36.4,-5.1,28.98,North,0,0.0,0.0,17,0.00,,,0.00,WUHU216HW,2013-02-27 18:26:00,
2013-02-27 13:31:00,36.4,-5.1,28.98,North,0,0.0,0.0,17,0.00,,,0.00,WUHU216HW,2013-02-27 18:31:00,
2013-02-27 13:36:00,36.4,-0.9,28.98,North,0,0.0,0.0,20,0.00,,,0.00,WUHU216HW,2013-02-27 18:36:00,
2013-02-27 13:41:00,36.4,2.6,28.98,North,0,0.0,0.0,24,0.00,,,0.00,WUHU216HW,2013-02-27 18:41:00,
2013-02-27 13:46:00,36.4,7.0,28.97,North,0,0.0,0.0,29,0.00,,,0.00,WUHU216HW,2013-02-27 18:46:00,
2013-02-27 13:52:00,36.2,11.6,28.97,North,0,0.0,0.0,36,0.00,,,0.00,WUHU216HW,2013-02-27 18:52:00,
2013-02-27 13:57:00,36.4,9.8,28.98,North,0,0.0,0.0,33,0.00,,,0.00,WUHU216HW,2013-02-27 18:57:00,
2013-02-27 14:02:00,36.4,11.7,28.98,North,0,0.0,0.0,36,0.00,,,0.00,WUHU216HW,2013-02-27 19:02:00,
2013-02-27 14:07:00,36.2,10.9,28.98,North,0,0.0,0.0,35,0.00,,,0.00,WUHU216HW,2013-02-27 19:07:00,
2013-02-27 14:12:00,36.2,10.9,28.98,North,0,0.0,0.0,35,0.00,,,0.00,WUHU216HW,2013-02-27 19:12:00,
2013-02-27 14:17:00,36.2,10.3,28.98,North,0,0.0,0.0,34,0.00,,,0.00,WUHU216HW,2013-02-27 19:17:00,
2013-02-27 14:22:00,36.0,10.8,28.98,North,0,0.0,0.0,35,0.00,,,0.00,WUHU216HW,2013-02-27 19:22:00,
2013-02-27 14:27:00,36.0,11.4,28.98,North,0,0.0,0.0,36,0.00,,,0.00,WUHU216HW,2013-02-27 19:27:00,
2013-02-27 14:32:00,36.0,11.4,28.98,North,0,0.0,0.0,36,0.00,,,0.00,WUHU216HW,2013-02-27 19:32:00,
2013-02-27 14:37:00,35.8,11.3,28.98,North,0,0.0,0.0,36,0.00,,,0.00,WUHU216HW,2013-02-27 19:37:00,
2013-02-27 14:42:00,35.6,9.2,28.98,North,0,0.0,0.0,33,0.00,,,0.00,WUHU216HW,2013-02-27 19:42:00,
2013-02-27 14:47:00,35.5,6.2,28.98,North,0,0.0,0.0,29,0.00,,,0.00,WUHU216HW,2013-02-27 19:47:00,
2013-02-27 14:52:00,35.5,3.6,28.98,North,0,0.0,0.0,26,0.00,,,0.00,WUHU216HW,2013-02-27 19:52:00,
2013-02-27 14:57:00,35.3,0.8,28.99,North,0,0.0,0.0,23,0.00,,,0.00,WUHU216HW,2013-02-27 19:57:00,
2013-02-27 15:02:00,35.3,-1.8,28.99,North,0,0.0,0.0,20,0.00,,,0.00,WUHU216HW,2013-02-27 20:02:00,
2013-02-27 15:07:00,35.3,-7.5,28.99,North,0,0.0,0.0,16,0.00,,,0.00,WUHU216HW,2013-02-27 20:07:00,
2013-02-27 15:12:00,35.1,-11.9,28.99,North,0,0.0,0.0,13,0.00,,,0.00,WUHU216HW,2013-02-27 20:12:00,
2013-02-27 15:17:00,35.1,-16.1,28.99,North,0,0.0,0.0,7,0.00,,,0.00,WUHU216HW,2013-02-27 20:17:00,
2013-02-27 15:22:00,35.1,-16.1,29.00,North,0,0.0,0.0,7,0.00,,,0.00,WUHU216HW,2013-02-27 20:22:00,
2013-02-27 15:28:00,35.3,-15.9,28.99,North,0,0.0,0.0,7,0.00,,,0.00,WUHU216HW,2013-02-27 20:28:00,
2013-02-27 15:33:00,35.3,-15.9,29.00,North,0,0.0,0.0,10,0.01,,,0.01,WUHU216HW,2013-02-27 20:33:00,
2013-02-27 15:38:00,35.3,-15.9,28.99,North,0,0.0,0.0,9,0.01,,,0.01,WUHU216HW,2013-02-27 20:38:00,
2013-02-27 15:43:00,35.5,-15.8,29.00,North,0,0.0,0.0,6,0.01,,,0.01,WUHU216HW,2013-02-27 20:43:00,
2013-02-27 15:48:00,35.3,-15.9,29.00,North,0,0.0,0.0,6,0.01,,,0.01,WUHU216HW,2013-02-27 20:48:00,
2013-02-27 15:53:00,35.3,-15.9,29.00,North,0,0.0,0.0,2,0.01,,,0.01,WUHU216HW,2013-02-27 20:53:00,
2013-02-27 15:58:00,35.3,-15.9,29.00,North,0,0.0,0.0,1,0.01,,,0.01,WUHU216HW,2013-02-27 20:58:00,
2013-02-27 16:03:00,35.1,-16.1,29.00,North,0,0.0,0.0,2,0.01,,,0.01,WUHU216HW,2013-02-27 21:03:00,
2013-02-27 16:08:00,34.9,-16.2,29.00,North,0,0.0,0.0,1,0.01,,,0.01,WUHU216HW,2013-02-27 21:08:00,
2013-02-27 16:13:00,34.9,-16.2,29.00,North,0,0.0,0.0,1,0.01,,,0.01,WUHU216HW,2013-02-27 21:13:00,
2013-02-27 16:18:00,35.1,-16.1,29.00,North,0,0.0,0.0,1,0.01,,,0.01,WUHU216HW,2013-02-27 21:18:00,
2013-02-27 16:23:00,35.1,-16.1,29.00,North,0,0.0,0.0,1,0.02,,,0.02,WUHU216HW,2013-02-27 21:23:00,
2013-02-27 16:28:00,34.9,-16.2,29.01,North,0,0.0,0.0,1,0.01,,,0.02,WUHU216HW,2013-02-27 21:28:00,
2013-02-27 16:33:00,34.9,-16.2,29.01,North,0,0.0,0.0,1,0.01,,,0.02,WUHU216HW,2013-02-27 21:33:00,
2013-02-27 16:38:00,34.6,-16.6,29.01,North,0,0.0,0.0,1,0.01,,,0.02,WUHU216HW,2013-02-27 21:38:00,
2013-02-27 16:44:00,34.6,-16.6,29.01,North,0,0.0,0.0,1,0.01,,,0.02,WUHU216HW,2013-02-27 21:44:00,
2013-02-27 16:49:00,34.4,-16.6,29.01,North,0,0.0,0.0,1,0.01,,,0.02,WUHU216HW,2013-02-27 21:49:00,
2013-02-27 16:54:00,34.2,-16.8,29.01,North,0,0.0,0.0,1,0.01,,,0.02,WUHU216HW,2013-02-27 21:54:00,
2013-02-27 16:59:00,34.2,-16.8,29.01,North,0,0.0,0.0,1,0.01,,,0.02,WUHU216HW,2013-02-27 21:59:00,
2013-02-27 17:04:00,34.2,-16.8,29.01,North,0,0.0,0.0,1,0.01,,,0.02,WUHU216HW,2013-02-27 22:04:00,
2013-02-27 17:09:00,34.2,-16.8,29.01,North,0,0.0,0.0,1,0.01,,,0.02,WUHU216HW,2013-02-27 22:09:00,
2013-02-27 17:14:00,34.2,-16.8,29.01,North,0,0.0,0.0,1,0.01,,,0.02,WUHU216HW,2013-02-27 22:14:00,
2013-02-27 17:19:00,34.2,-16.8,29.01,North,0,0.0,0.0,1,0.01,,,0.02,WUHU216HW,2013-02-27 22:19:00,
2013-02-27 17:24:00,34.2,-16.8,29.01,North,0,0.0,0.0,1,0.00,,,0.02,WUHU216HW,2013-02-27 22:24:00,
2013-02-27 17:29:00,34.2,-16.8,29.01,North,0,0.0,0.0,1,0.00,,,0.02,WUHU216HW,2013-02-27 22:29:00,
2013-02-27 17:34:00,34.2,-16.8,29.02,North,0,0.0,0.0,1,0.00,,,0.02,WUHU216HW,2013-02-27 22:34:00,
2013-02-27 17:39:00,34.2,-16.8,29.02,North,0,0.0,0.0,1,0.00,,,0.02,WUHU216HW,2013-02-27 22:39:00,
2013-02-27 17:44:00,34.2,-16.8,29.02,North,0,0.0,0.0,1,0.00,,,0.02,WUHU216HW,2013-02-27 22:44:00,
2013-02-27 17:49:00,34.0,-16.9,29.02,North,0,0.0,0.0,1,0.00,,,0.02,WUHU216HW,2013-02-27 22:49:00,
2013-02-27 17:54:00,34.0,-16.9,29.02,North,0,0.0,0.0,1,0.00,,,0.02,WUHU216HW,2013-02-27 22:54:00,
2013-02-27 17:59:00,33.8,-17.1,29.02,North,0,0.0,0.0,1,0.00,,,0.02,WUHU216HW,2013-02-27 22:59:00,
2013-02-27 18:04:00,33.8,-17.1,29.03,North,0,0.0,0.0,1,0.00,,,0.02,WUHU216HW,2013-02-27 23:04:00,
2013-02-27 18:09:00,33.8,-17.1,29.03,North,0,0.0,0.0,1,0.00,,,0.02,WUHU216HW,2013-02-27 23:09:00,
2013-02-27 18:14:00,33.8,-17.1,29.03,North,0,0.0,0.0,1,0.00,,,0.02,WUHU216HW,2013-02-27 23:14:00,
2013-02-27 18:19:00,33.7,-17.2,29.03,North,0,0.0,0.0,1,0.00,,,0.02,WUHU216HW,2013-02-27 23:19:00,
2013-02-27 18:24:00,33.7,-17.2,29.03,North,0,0.0,0.0,1,0.00,,,0.02,WUHU216HW,2013-02-27 23:24:00,
2013-02-27 18:29:00,33.7,-17.2,29.03,North,0,0.0,0.0,1,0.00,,,0.02,WUHU216HW,2013-02-27 23:29:00,
2013-02-27 18:35:00,33.5,-17.4,29.03,North,0,0.0,0.0,1,0.00,,,0.02,WUHU216HW,2013-02-27 23:35:00,
2013-02-27 18:40:00,33.5,-17.4,29.03,North,0,0.0,0.0,1,0.01,,,0.02,WUHU216HW,2013-02-27 23:40:00,
2013-02-27 18:45:00,33.5,-17.4,29.03,North,0,0.0,0.0,1,0.01,,,0.03,WUHU216HW,2013-02-27 23:45:00,
2013-02-27 18:50:00,33.5,-17.4,29.03,North,0,0.0,0.0,1,0.01,,,0.03,WUHU216HW,2013-02-27 23:50:00,
2013-02-27 18:55:00,33.5,-17.4,29.03,North,0,0.0,0.0,1,0.01,,,0.03,WUHU216HW,2013-02-27 23:55:00,
2013-02-27 19:00:00,33.3,-17.4,29.04,North,0,0.0,0.0,1,0.01,,,0.03,WUHU216HW,2013-02-28 00:00:00,
2013-02-27 19:05:00,33.3,-17.4,29.04,North,0,0.0,0.0,1,0.01,,,0.03,WUHU216HW,2013-02-28 00:05:00,
2013-02-27 19:10:00,33.3,-17.4,29.04,North,0,0.0,0.0,1,0.01,,,0.03,WUHU216HW,2013-02-28 00:10:00,
2013-02-27 19:15:00,33.3,-17.4,29.04,North,0,0.0,0.0,1,0.01,,,0.03,WUHU216HW,2013-02-28 00:15:00,
2013-02-27 19:20:00,33.3,-17.4,29.04,North,0,0.0,0.0,1,0.01,,,0.03,WUHU216HW,2013-02-28 00:20:00,
2013-02-27 19:25:00,33.3,-17.4,29.04,North,0,0.0,0.0,1,0.01,,,0.03,WUHU216HW,2013-02-28 00:25:00,
2013-02-27 19:30:00,33.3,-17.4,29.04,North,0,0.0,0.0,1,0.01,,,0.03,WUHU216HW,2013-02-28 00:30:00,
2013-02-27 19:35:00,33.3,-17.4,29.04,North,0,0.0,0.0,1,0.01,,,0.03,WUHU216HW,2013-02-28 00:35:00,
2013-02-27 19:41:00,33.3,-17.4,29.05,North,0,0.0,0.0,1,0.00,,,0.03,WUHU216HW,2013-02-28 00:41:00,
2013-02-27 19:46:00,33.3,-17.4,29.05,North,0,0.0,0.0,1,0.00,,,0.03,WUHU216HW,2013-02-28 00:46:00,
2013-02-27 19:51:00,33.3,-17.4,29.05,North,0,0.0,0.0,1,0.00,,,0.03,WUHU216HW,2013-02-28 00:51:00,
2013-02-27 19:56:00,33.3,-17.4,29.05,North,0,0.0,0.0,1,0.00,,,0.03,WUHU216HW,2013-02-28 00:56:00,
2013-02-27 20:01:00,33.3,-17.4,29.05,North,0,0.0,0.0,1,0.00,,,0.03,WUHU216HW,2013-02-28 01:01:00,
2013-02-27 20:06:00,33.3,-17.4,29.05,North,0,0.0,0.0,1,0.00,,,0.03,WUHU216HW,2013-02-28 01:06:00,
2013-02-27 20:11:00,33.3,-17.4,29.05,North,0,0.0,0.0,1,0.00,,,0.03,WUHU216HW,2013-02-28 01:11:00,
2013-02-27 20:16:00,33.3,-17.4,29.05,North,0,0.0,0.0,1,0.00,,,0.03,WUHU216HW,2013-02-28 01:16:00,
2013-02-27 20:21:00,33.3,-17.4,29.05,North,0,0.0,0.0,1,0.00,,,0.03,WUHU216HW,2013-02-28 01:21:00,
2013-02-27 20:26:00,33.3,-17.4,29.05,North,0,0.0,0.0,1,0.00,,,0.03,WUHU216HW,2013-02-28 01:26:00,
2013-02-27 20:31:00,33.3,-17.4,29.05,North,0,0.0,0.0,2,0.00,,,0.03,WUHU216HW,2013-02-28 01:31:00,
2013-02-27 20:37:00,33.3,-17.4,29.05,North,0,0.0,0.0,3,0.00,,,0.03,WUHU216HW,2013-02-28 01:37:00,
2013-02-27 20:42:00,33.5,-17.4,29.05,North,0,0.0,0.0,5,0.00,,,0.03,WUHU216HW,2013-02-28 01:42:00,
2013-02-27 20:47:00,33.3,-17.4,29.05,North,0,0.0,0.0,5,0.00,,,0.03,WUHU216HW,2013-02-28 01:47:00,
2013-02-27 20:52:00,33.3,-17.4,29.05,North,0,0.0,0.0,10,0.00,,,0.03,WUHU216HW,2013-02-28 01:52:00,
2013-02-27 20:57:00,33.3,-17.4,29.05,North,0,0.0,0.0,9,0.00,,,0.03,WUHU216HW,2013-02-28 01:57:00,
2013-02-27 21:02:00,33.3,-17.4,29.05,North,0,0.0,0.0,7,0.00,,,0.03,WUHU216HW,2013-02-28 02:02:00,
2013-02-27 21:07:00,33.1,-17.6,29.05,North,0,0.0,0.0,7,0.00,,,0.03,WUHU216HW,2013-02-28 02:07:00,
2013-02-27 21:12:00,33.1,-17.6,29.05,North,0,0.0,0.0,9,0.00,,,0.03,WUHU216HW,2013-02-28 02:12:00,
2013-02-27 21:17:00,33.3,-17.4,29.05,North,0,0.0,0.0,9,0.00,,,0.03,WUHU216HW,2013-02-28 02:17:00,
2013-02-27 21:23:00,33.1,-14.8,29.05,North,0,0.0,0.0,12,0.00,,,0.03,WUHU216HW,2013-02-28 02:23:00,
2013-02-27 21:28:00,33.3,-9.1,29.05,North,0,0.0,0.0,16,0.00,,,0.03,WUHU216HW,2013-02-28 02:28:00,
2013-02-27 21:33:00,33.3,-13.3,29.05,North,0,0.0,0.0,13,0.00,,,0.03,WUHU216HW,2013-02-28 02:33:00,
2013-02-27 21:38:00,33.1,-12.1,29.05,North,0,0.0,0.0,14,0.00,,,0.03,WUHU216HW,2013-02-28 02:38:00,
2013-02-27 21:43:00,33.3,-14.7,29.04,North,0,0.0,0.0,12,0.00,,,0.03,WUHU216HW,2013-02-28 02:43:00,
2013-02-27 21:48:00,33.1,-16.2,29.05,North,0,0.0,0.0,11,0.00,,,0.03,WUHU216HW,2013-02-28 02:48:00,
2013-02-27 21:53:00,33.1,-16.2,29.05,North,0,0.0,0.0,11,0.00,,,0.03,WUHU216HW,2013-02-28 02:53:00,
2013-02-27 21:58:00,33.1,-14.8,29.05,North,0,0.0,0.0,12,0.00,,,0.03,WUHU216HW,2013-02-28 02:58:00,
2013-02-27 22:03:00,33.1,-12.1,29.05,North,0,0.0,0.0,14,0.00,,,0.03,WUHU216HW,2013-02-28 03:03:00,
2013-02-27 22:08:00,33.1,-10.6,29.05,North,0,0.0,0.0,15,0.00,,,0.03,WUHU216HW,2013-02-28 03:08:00,
2013-02-27 22:14:00,33.1,-10.6,29.05,North,0,0.0,0.0,15,0.00,,,0.03,WUHU216HW,2013-02-28 03:14:00,
2013-02-27 22:19:00,33.1,-7.8,29.05,North,0,0.0,0.0,17,0.00,,,0.03,WUHU216HW,2013-02-28 03:19:00,
2013-02-27 22:24:00,33.1,-10.6,29.04,North,0,0.0,0.0,15,0.00,,,0.03,WUHU216HW,2013-02-28 03:24:00,
2013-02-27 22:29:00,33.1,-10.6,29.04,North,0,0.0,0.0,15,0.00,,,0.03,WUHU216HW,2013-02-28 03:29:00,
2013-02-27 22:34:00,33.1,-12.1,29.04,North,0,0.0,0.0,14,0.00,,,0.03,WUHU216HW,2013-02-28 03:34:00,
2013-02-27 22:39:00,33.1,-9.2,29.04,North,0,0.0,0.0,16,0.00,,,0.03,WUHU216HW,2013-02-28 03:39:00,
2013-02-27 22:44:00,33.1,-7.8,29.04,North,0,0.0,0.0,17,0.00,,,0.03,WUHU216HW,2013-02-28 03:44:00,
2013-02-27 22:49:00,33.1,-9.2,29.04,North,0,0.0,0.0,16,0.00,,,0.03,WUHU216HW,2013-02-28 03:49:00,
2013-02-27 22:54:00,33.1,-12.1,29.04,North,0,0.0,0.0,14,0.00,,,0.03,WUHU216HW,2013-02-28 03:54:00,
2013-02-27 22:59:00,33.1,-10.6,29.04,North,0,0.0,0.0,15,0.00,,,0.03,WUHU216HW,2013-02-28 03:59:00,
2013-02-27 23:04:00,33.1,-9.2,29.04,North,0,0.0,0.0,16,0.00,,,0.03,WUHU216HW,2013-02-28 04:04:00,
2013-02-27 23:09:00,33.1,-9.2,29.04,North,0,0.0,0.0,16,0.00,,,0.03,WUHU216HW,2013-02-28 04:09:00,
2013-02-27 23:14:00,33.1,-12.1,29.04,North,0,0.0,0.0,14,0.00,,,0.03,WUHU216HW,2013-02-28 04:14:00,
2013-02-27 23:19:00,33.1,-14.8,29.04,North,0,0.0,0.0,12,0.00,,,0.03,WUHU216HW,2013-02-28 04:19:00,
2013-02-27 23:24:00,32.9,-17.7,29.04,North,0,0.0,0.0,10,0.00,,,0.03,WUHU216HW,2013-02-28 04:24:00,
2013-02-27 23:29:00,32.9,-17.7,29.04,North,0,0.0,0.0,7,0.00,,,0.03,WUHU216HW,2013-02-28 04:29:00,
2013-02-27 23:35:00,32.9,-17.7,29.04,North,0,0.0,0.0,6,0.00,,,0.03,WUHU216HW,2013-02-28 04:35:00,
2013-02-27 23:40:00,32.9,-17.7,29.04,North,0,0.0,0.0,5,0.00,,,0.03,WUHU216HW,2013-02-28 04:40:00,
2013-02-27 23:45:00,32.9,-17.7,29.04,North,0,0.0,0.0,2,0.00,,,0.03,WUHU216HW,2013-02-28 04:45:00,
2013-02-27 23:50:00,32.8,-17.8,29.03,North,0,0.0,0.0,1,0.00,,,0.03,WUHU216HW,2013-02-28 04:50:00,
2013-02-27 23:55:00,32.8,-17.8,29.03,North,0,0.0,0.0,1,0.00,,,0.03,WUHU216HW,2013-02-28 04:55:00,